Ashford, WA

8:53 PM PDT on September 21, 2014 (GMT -0700)
RAWS ASHFORD WA US | Change Station
CLOSE
Current Station
Personal Weather Station
Location: Elbe, WA
Elevation: 1420 ft
Nearby Weather Stations

Elev 1420 ft 46.76 °N, 122.11 °W | Updated 43 minutes ago

Partly Cloudy
Partly Cloudy
69 °F
Feels Like 69 °F
N
1
Wind Variable Wind from South
Gusts 5.0 mph

Today
High -- | Low -- °F
--% Chance of Precip.
Yesterday
High -- | Low -- °F
Precip. -- in
6:53 AM 7:07 PM
Waning Crescent, 4% visible
Pressure 29.92 in
Visibility 10.0 miles
Clouds Scattered Clouds 15000 ft
Dew Point 58 °F
Humidity 69%
Rainfall 0.00 in
Snow Depth 0 in , 0 in , 0 in
UV 0 out of 12
Pollen 2.20 out of 12
Air Quality Not available.
Flu Activity Not available.
METAR KTCM 220258Z AUTO 29005KT 10SM SCT150 18/14 A2991 RMK AO2 SLP132 T01830140 52016 $

More Conditions Fewer Conditions

Pressure 29.92 in
Visibility 10.0 miles
Clouds Scattered Clouds 15000 ft
Dew Point 58 °F
Humidity 69%
Rainfall 0.00 in
Snow Depth 0 in , 0 in , 0 in
UV 0 out of 12
Pollen 2.20 out of 12
Air Quality Not available.
Flu Activity Not available.
METAR KTCM 220258Z AUTO 29005KT 10SM SCT150 18/14 A2991 RMK AO2 SLP132 T01830140 52016 $

More Conditions Fewer Conditions

10-Day Weather Forecast

Almanac

Astronomy

Sep. 21, 2014 Rise Set
Actual Time 6:53 AM PDT 7:07 PM PDT
Civil Twilight 6:23 AM PDT 7:37 PM PDT
Nautical Twilight 5:47 AM PDT 8:13 PM PDT
Astronomical Twilight 5:10 AM PDT 8:49 PM PDT
Moon 4:25 AM PDT (9/21) 5:51 PM PDT (9/21)
Length of Visible Light 13h 14m
Length of Day
12h 13m
Tomorrow will be 3m 19s shorter.
Waning Crescent, 4% of the Moon is Illuminated
Today
Waning Crescent
Sep 24
New
Oct 1
First Quarter
Oct 8
Full
Oct 15
Last Quarter

Today's Extremes

State Highs State Lows

Community

WunderPhotos

Upload Photos

1,755,382 photos uploaded!

Nearby

Snow Depth

Station Depth Elevation
Alpine Meadows 0 in 3500 ft
Morse Lake 0 in 5400 ft
Touchet 0 in 5530 ft
June Lake 0 in 3340 ft
Surprise Lakes 0 in 4250 ft

Earthquake Activity

City Distance Mag. Time & Date
No recent earthquake activity has been reported nearby.
Minimum magnitude displayed is 2.5.

Coastal Water Temperatures

Place Temperature
No Stations Reporting

Nearby Weather Stations